Google Maps JavaScript API Example
Pilot Flight Report # 92683 Submitted by : AST003 on 2019-02-10
Date: 2019-02-10Aircraft: Boeing 787-3 Dreamliner
Flight No.: Not AvailableDistance (Nm): 525.83
Departure: VTSP - Phuket InternationalDestination: WSAP - Paya Lebar
 TimeFuelWeightSpeeds  
Out (Taxi)2348Z38688 lbs261990 lbs Flight RulesIFR
Off (Takeoff)2354Z 261462 lbs159 ktsFlight LevelFL328
On (Landing)0115Z 246209 lbs124 ktsVSTD-125 ft/min
In (Ramp)0116Z22844 lbs246149 lbs ZFW223300 lbs
Flight1.40  -  1:2115254 lbs  Pax0
Block1.47  -  1:2815844 lbs  Cargo0
Departure WeatherVTSP 102348Z 00000KT 5SM FEW020 25/23 A2997
Destination WeatherWSAP 100116Z 04004KT 46SM FEW017 BKN301 27/25 A2991
Flight Comments